createdAt,value
2022-08-08T00:00:53.877Z,99.90
2022-08-08T00:03:13.312Z,99.90
2022-08-08T00:06:03.648Z,99.90
2022-08-08T00:09:02.245Z,99.90
2022-08-08T00:12:24.684Z,99.90
2022-08-08T00:15:17.646Z,99.90
2022-08-08T00:18:14.008Z,99.90
2022-08-08T00:20:56.520Z,99.90
2022-08-08T00:23:23.865Z,99.90
2022-08-08T00:25:59.845Z,99.90
2022-08-08T00:28:49.493Z,99.90
2022-08-08T00:32:20.395Z,99.90
2022-08-08T00:34:50.435Z,99.90
2022-08-08T00:37:48.057Z,99.90
2022-08-08T00:41:10.464Z,99.90
2022-08-08T00:43:46.037Z,99.90
2022-08-08T00:46:17.284Z,99.90
2022-08-08T00:48:59.197Z,99.90
2022-08-08T00:51:57.155Z,99.90
2022-08-08T00:54:39.137Z,99.90
2022-08-08T00:57:23.369Z,99.90
2022-08-08T01:00:10.874Z,99.90
2022-08-08T01:04:02.597Z,99.90
2022-08-08T01:06:08.336Z,99.90
2022-08-08T01:09:36.200Z,99.90
2022-08-08T01:12:06.396Z,99.90
2022-08-08T01:15:02.671Z,99.90
2022-08-08T01:18:02.151Z,99.90
2022-08-08T01:21:07.502Z,99.90
2022-08-08T01:24:20.673Z,99.90
2022-08-08T01:27:10.892Z,99.90
2022-08-08T01:29:59.682Z,99.90
2022-08-08T01:32:47.472Z,99.90
2022-08-08T01:35:42.653Z,99.90
2022-08-08T01:38:40.419Z,99.90
2022-08-08T01:41:23.418Z,99.90
2022-08-08T01:44:03.364Z,99.90
2022-08-08T01:46:52.051Z,99.90
2022-08-08T01:49:38.734Z,99.90
2022-08-08T01:52:52.997Z,99.90
2022-08-08T01:56:26.862Z,99.90
2022-08-08T01:58:13.109Z,99.90
2022-08-08T02:00:49.167Z,99.90
2022-08-08T02:03:57.078Z,99.90
2022-08-08T02:06:43.896Z,99.90
2022-08-08T02:09:50.243Z,99.90
2022-08-08T02:12:43.805Z,99.90
2022-08-08T02:15:52.515Z,99.90
2022-08-08T02:18:58.912Z,99.90
2022-08-08T02:21:53.683Z,99.90
2022-08-08T02:25:11.681Z,99.90
2022-08-08T02:27:50.816Z,99.90
2022-08-08T02:30:24.854Z,99.90
2022-08-08T02:33:25.075Z,99.90
2022-08-08T02:36:39.820Z,99.90
2022-08-08T02:39:40.569Z,99.90
2022-08-08T02:42:47.787Z,99.90
2022-08-08T02:45:59.475Z,99.90
2022-08-08T02:48:57.020Z,99.90
2022-08-08T02:51:47.605Z,99.90
2022-08-08T02:54:50.323Z,99.90
2022-08-08T02:57:45.658Z,99.90
2022-08-08T03:00:54.851Z,99.90
2022-08-08T03:05:02.825Z,99.90
2022-08-08T03:06:38.375Z,99.90
2022-08-08T03:09:44.961Z,99.90
2022-08-08T03:12:36.650Z,99.90
2022-08-08T03:16:01.429Z,99.90
2022-08-08T03:19:08.550Z,99.90
2022-08-08T03:21:54.898Z,99.90
2022-08-08T03:24:24.246Z,99.90
2022-08-08T03:26:59.694Z,99.90
2022-08-08T03:29:54.797Z,99.90
2022-08-08T03:32:41.588Z,99.90
2022-08-08T03:35:10.296Z,99.90
2022-08-08T03:38:52.670Z,99.90
2022-08-08T03:40:30.531Z,99.90
2022-08-08T03:43:15.586Z,99.90
2022-08-08T03:46:06.847Z,99.90
2022-08-08T03:49:09.448Z,99.90
2022-08-08T03:51:19.515Z,99.90
2022-08-08T03:54:05.615Z,99.90
2022-08-08T03:56:35.631Z,99.90
2022-08-08T03:59:02.812Z,99.90
2022-08-08T04:02:12.885Z,99.90
2022-08-08T04:04:30.739Z,99.90
2022-08-08T04:07:01.002Z,99.90
2022-08-08T04:09:59.455Z,99.90
2022-08-08T04:12:16.229Z,99.90
2022-08-08T04:14:45.164Z,99.90
2022-08-08T04:17:22.750Z,99.90
2022-08-08T04:20:02.044Z,99.90
2022-08-08T04:22:32.297Z,99.90
2022-08-08T04:25:02.401Z,99.90
2022-08-08T04:28:03.463Z,99.90
2022-08-08T04:30:18.380Z,99.90
2022-08-08T04:32:50.053Z,99.90
2022-08-08T04:35:20.331Z,99.90
2022-08-08T04:37:51.027Z,99.90
2022-08-08T04:40:19.178Z,99.90
2022-08-08T04:42:57.166Z,99.90
2022-08-08T04:45:26.053Z,99.90
2022-08-08T04:47:54.416Z,99.90
2022-08-08T04:50:24.780Z,99.90
2022-08-08T04:53:01.044Z,99.90
2022-08-08T04:55:47.589Z,99.90
2022-08-08T04:58:20.329Z,99.90
2022-08-08T05:00:50.162Z,99.90
2022-08-08T05:04:10.326Z,99.90
2022-08-08T05:06:12.934Z,99.90
2022-08-08T05:08:51.838Z,99.90
2022-08-08T05:11:23.730Z,99.90
2022-08-08T05:13:58.190Z,99.90
2022-08-08T05:16:53.573Z,99.90
2022-08-08T05:20:11.495Z,99.90
2022-08-08T05:22:06.837Z,99.90
2022-08-08T05:24:34.808Z,99.90
2022-08-08T05:27:05.693Z,99.90
2022-08-08T05:29:35.902Z,99.90
2022-08-08T05:32:08.062Z,99.90
2022-08-08T05:34:41.291Z,99.90
2022-08-08T05:37:17.222Z,99.90
2022-08-08T05:39:57.212Z,99.90
2022-08-08T05:42:30.797Z,99.90
2022-08-08T05:45:24.787Z,99.90
2022-08-08T05:47:52.824Z,99.90
2022-08-08T05:50:30.217Z,99.90
2022-08-08T05:53:22.903Z,99.90
2022-08-08T05:56:09.783Z,99.90
2022-08-08T05:58:56.651Z,99.90
2022-08-08T06:01:55.979Z,99.90
2022-08-08T06:04:23.034Z,99.90
2022-08-08T06:06:53.138Z,99.90
2022-08-08T06:09:59.038Z,99.90
2022-08-08T06:12:14.480Z,99.90
2022-08-08T06:14:47.923Z,99.90
2022-08-08T06:17:19.415Z,99.90
2022-08-08T06:19:48.212Z,99.90
2022-08-08T06:25:04.684Z,99.90
2022-08-08T06:27:48.856Z,99.90
2022-08-08T06:30:19.930Z,99.90
2022-08-08T06:33:01.232Z,99.90
2022-08-08T06:36:06.197Z,99.90
2022-08-08T06:38:27.684Z,99.90
2022-08-08T06:41:04.248Z,99.90
2022-08-08T06:43:35.841Z,99.90
2022-08-08T06:46:09.021Z,99.90
2022-08-08T06:48:38.261Z,99.90
2022-08-08T06:51:07.584Z,99.90
2022-08-08T06:53:39.424Z,99.90
2022-08-08T06:56:08.814Z,99.90
2022-08-08T06:58:37.062Z,99.90
2022-08-08T07:01:52.159Z,99.90
2022-08-08T07:04:38.844Z,99.90
2022-08-08T07:07:12.148Z,99.90
2022-08-08T07:10:00.224Z,99.90
2022-08-08T07:12:41.178Z,99.90
2022-08-08T07:15:32.108Z,99.90
2022-08-08T07:18:35.570Z,99.90
2022-08-08T07:20:57.504Z,99.90
2022-08-08T07:24:01.099Z,99.90
2022-08-08T07:26:35.489Z,99.90
2022-08-08T07:29:05.833Z,99.90
2022-08-08T07:31:36.780Z,99.90
2022-08-08T07:34:09.316Z,99.90
2022-08-08T07:36:48.169Z,99.90
2022-08-08T07:39:22.444Z,99.90
2022-08-08T07:42:04.368Z,99.90
2022-08-08T07:44:37.200Z,99.90
2022-08-08T07:47:07.723Z,99.90
2022-08-08T07:49:34.888Z,99.90
2022-08-08T07:52:13.158Z,99.90
2022-08-08T07:55:10.909Z,99.90
2022-08-08T07:57:48.489Z,99.90
2022-08-08T08:00:17.457Z,99.90
2022-08-08T08:03:09.820Z,99.90
2022-08-08T08:05:43.202Z,99.90
2022-08-08T08:08:18.855Z,99.90
2022-08-08T08:10:58.995Z,99.90
2022-08-08T08:13:42.846Z,99.90
2022-08-08T08:16:26.455Z,99.90
2022-08-08T08:18:58.873Z,99.90
2022-08-08T08:21:57.609Z,99.90
2022-08-08T08:24:32.314Z,99.90
2022-08-08T08:27:03.443Z,99.90
2022-08-08T08:29:31.063Z,99.90
2022-08-08T08:31:59.209Z,99.90
2022-08-08T08:34:32.542Z,99.90
2022-08-08T08:37:07.772Z,99.90
2022-08-08T08:39:59.323Z,99.90
2022-08-08T08:42:35.375Z,99.90
2022-08-08T08:45:22.779Z,99.90
2022-08-08T08:47:58.398Z,99.90
2022-08-08T08:50:31.949Z,99.90
2022-08-08T08:53:55.168Z,99.90
2022-08-08T08:56:02.451Z,99.90
2022-08-08T08:58:33.300Z,99.90
2022-08-08T09:01:09.260Z,99.90
2022-08-08T09:03:46.547Z,99.90
2022-08-08T09:06:26.549Z,99.90
2022-08-08T09:09:26.280Z,99.90
2022-08-08T09:12:01.481Z,99.90
2022-08-08T09:14:29.771Z,99.90
2022-08-08T09:16:56.872Z,99.90
2022-08-08T09:22:02.126Z,99.90
2022-08-08T09:22:13.468Z,99.90
2022-08-08T09:24:55.880Z,99.90
2022-08-08T09:27:23.583Z,99.90
2022-08-08T09:30:14.797Z,99.90
2022-08-08T09:33:12.160Z,99.90
2022-08-08T09:35:46.842Z,99.90
2022-08-08T09:38:24.849Z,99.90
2022-08-08T09:41:00.899Z,99.90
2022-08-08T09:44:04.242Z,99.90
2022-08-08T09:46:25.491Z,99.90
2022-08-08T09:49:18.200Z,99.90
2022-08-08T09:52:07.418Z,99.90
2022-08-08T09:54:45.001Z,99.90
2022-08-08T09:57:19.084Z,99.90
2022-08-08T10:00:28.305Z,99.90
2022-08-08T10:02:44.778Z,99.90
2022-08-08T10:05:25.237Z,99.90
2022-08-08T10:08:00.329Z,99.90
2022-08-08T10:10:31.868Z,99.70
2022-08-08T10:13:14.320Z,98.70
2022-08-08T10:16:00.790Z,98.80
2022-08-08T10:18:36.683Z,97.60
2022-08-08T10:21:24.921Z,97.20
2022-08-08T10:24:12.216Z,97.00
2022-08-08T10:27:05.707Z,95.00
2022-08-08T10:29:59.917Z,95.90
2022-08-08T10:32:48.797Z,95.40
2022-08-08T10:36:08.257Z,94.90
2022-08-08T10:38:16.375Z,94.60
2022-08-08T10:40:46.078Z,94.20
2022-08-08T10:43:14.390Z,94.50
2022-08-08T10:45:55.974Z,94.10
2022-08-08T10:48:56.951Z,92.90
2022-08-08T10:51:41.013Z,92.50
2022-08-08T10:54:27.093Z,91.60
2022-08-08T10:57:03.798Z,92.00
2022-08-08T10:59:31.433Z,91.90
2022-08-08T11:02:07.963Z,91.70
2022-08-08T11:04:53.234Z,91.30
2022-08-08T11:08:31.499Z,91.70
2022-08-08T11:10:28.766Z,91.30
2022-08-08T11:15:54.775Z,91.10
2022-08-08T11:18:30.432Z,91.10
2022-08-08T11:21:00.829Z,90.40
2022-08-08T11:23:44.028Z,89.60
2022-08-08T11:26:25.733Z,89.60
2022-08-08T11:28:57.457Z,88.60
2022-08-08T11:31:30.116Z,88.10
2022-08-08T11:34:24.334Z,88.30
2022-08-08T11:37:15.603Z,87.60
2022-08-08T11:39:43.672Z,88.10
2022-08-08T11:42:27.156Z,85.90
2022-08-08T11:44:59.137Z,86.40
2022-08-08T11:47:39.213Z,86.40
2022-08-08T11:50:14.637Z,86.60
2022-08-08T11:52:51.345Z,85.70
2022-08-08T11:55:19.159Z,86.00
2022-08-08T11:57:51.642Z,86.20
2022-08-08T12:00:21.359Z,86.60
2022-08-08T12:02:51.164Z,86.30
2022-08-08T12:05:22.857Z,86.10
2022-08-08T12:07:55.991Z,84.90
2022-08-08T12:10:27.734Z,84.90
2022-08-08T12:13:02.605Z,84.50
2022-08-08T12:15:42.329Z,84.10
2022-08-08T12:18:21.565Z,84.90
2022-08-08T12:20:55.303Z,85.90
2022-08-08T12:23:43.503Z,85.00
2022-08-08T12:26:27.987Z,84.60
2022-08-08T12:29:36.175Z,83.00
2022-08-08T12:32:13.429Z,81.90
2022-08-08T12:34:48.616Z,82.70
2022-08-08T12:37:20.842Z,83.50
2022-08-08T12:39:59.827Z,82.30
2022-08-08T12:42:34.974Z,81.80
2022-08-08T12:45:54.930Z,82.30
2022-08-08T12:48:35.093Z,82.00
2022-08-08T12:50:57.705Z,80.80
2022-08-08T12:53:28.361Z,81.70
2022-08-08T12:56:18.392Z,81.80
2022-08-08T12:58:49.856Z,81.30
2022-08-08T13:01:17.248Z,81.40
2022-08-08T13:04:24.417Z,81.60
2022-08-08T13:07:16.811Z,80.00
2022-08-08T13:10:04.350Z,80.40
2022-08-08T13:12:45.966Z,80.10
2022-08-08T13:15:19.526Z,78.60
2022-08-08T13:17:53.954Z,77.90
2022-08-08T13:20:45.424Z,77.20
2022-08-08T13:23:36.955Z,78.10
2022-08-08T13:26:15.407Z,77.50
2022-08-08T13:28:45.926Z,76.50
2022-08-08T13:31:17.346Z,76.90
2022-08-08T13:33:50.126Z,76.50
2022-08-08T13:36:26.088Z,76.60
2022-08-08T13:38:54.787Z,77.60
2022-08-08T13:41:28.448Z,77.10
2022-08-08T13:44:11.046Z,77.80
2022-08-08T13:46:38.783Z,78.00
2022-08-08T13:50:36.695Z,77.50
2022-08-08T13:52:05.950Z,76.90
2022-08-08T13:54:36.172Z,76.60
2022-08-08T13:57:18.096Z,76.70
2022-08-08T14:00:09.584Z,76.40
2022-08-08T14:02:41.272Z,75.40
2022-08-08T14:05:22.397Z,75.50
2022-08-08T14:07:56.977Z,75.60
2022-08-08T14:10:33.838Z,75.10
2022-08-08T14:13:09.966Z,75.20
2022-08-08T14:16:04.714Z,76.30
2022-08-08T14:19:03.168Z,74.80
2022-08-08T14:21:48.823Z,76.00
2022-08-08T14:24:31.250Z,75.10
2022-08-08T14:26:58.402Z,74.00
2022-08-08T14:29:30.027Z,73.90
2022-08-08T14:32:09.212Z,74.40
2022-08-08T14:34:42.080Z,73.20
2022-08-08T14:37:13.206Z,73.50
2022-08-08T14:40:05.814Z,74.00
2022-08-08T14:42:54.519Z,73.80
2022-08-08T14:45:33.801Z,74.10
2022-08-08T14:48:16.608Z,73.40
2022-08-08T14:51:06.850Z,73.10
2022-08-08T14:53:55.108Z,72.90
2022-08-08T14:56:25.685Z,73.50
2022-08-08T14:58:54.582Z,72.70
2022-08-08T15:01:41.249Z,73.60
2022-08-08T15:04:09.751Z,72.90
2022-08-08T15:06:37.532Z,73.70
2022-08-08T15:09:07.195Z,74.30
2022-08-08T15:11:37.430Z,73.60
2022-08-08T15:14:15.220Z,73.40
2022-08-08T15:16:44.418Z,73.10
2022-08-08T15:19:11.952Z,73.00
2022-08-08T15:21:44.854Z,73.50
2022-08-08T15:24:13.833Z,72.50
2022-08-08T15:26:41.914Z,73.30
2022-08-08T15:29:08.944Z,73.50
2022-08-08T15:32:03.775Z,73.50
2022-08-08T15:34:31.494Z,74.30
2022-08-08T15:37:02.169Z,74.00
2022-08-08T15:39:38.453Z,74.70
2022-08-08T15:42:13.162Z,74.00
2022-08-08T15:44:45.337Z,74.60
2022-08-08T15:47:15.813Z,73.60
2022-08-08T15:49:47.840Z,73.90
2022-08-08T15:52:17.254Z,74.90
2022-08-08T15:54:47.885Z,74.90
2022-08-08T15:57:18.736Z,75.30
2022-08-08T16:00:06.435Z,75.00
2022-08-08T16:02:36.354Z,75.10
2022-08-08T16:05:04.127Z,75.90
2022-08-08T16:07:52.368Z,75.90
2022-08-08T16:13:13.852Z,76.00
2022-08-08T16:13:31.924Z,76.20
2022-08-08T16:16:09.174Z,75.90
2022-08-08T16:18:56.572Z,76.20
2022-08-08T16:21:31.727Z,75.70
2022-08-08T16:24:02.023Z,75.30
2022-08-08T16:26:34.107Z,76.10
2022-08-08T16:29:15.545Z,77.10
2022-08-08T16:31:49.220Z,77.00
2022-08-08T16:34:19.633Z,77.20
2022-08-08T16:36:49.329Z,77.90
2022-08-08T16:39:27.719Z,77.60
2022-08-08T16:42:06.171Z,78.00
2022-08-08T16:44:34.567Z,78.20
2022-08-08T16:47:41.491Z,78.40
2022-08-08T16:50:14.225Z,79.10
2022-08-08T16:55:23.677Z,79.10
2022-08-08T16:55:52.193Z,79.10
2022-08-08T16:58:20.493Z,79.00
2022-08-08T17:00:49.242Z,80.10
2022-08-08T17:03:24.373Z,80.20
2022-08-08T17:05:53.816Z,81.10
2022-08-08T17:08:23.694Z,82.30
2022-08-08T17:10:57.730Z,82.20
2022-08-08T17:13:41.135Z,83.00
2022-08-08T17:16:16.344Z,84.30
2022-08-08T17:18:45.589Z,83.60
2022-08-08T17:21:13.755Z,84.30
2022-08-08T17:23:58.410Z,85.00
2022-08-08T17:26:29.337Z,85.10
2022-08-08T17:29:04.281Z,86.10
2022-08-08T17:31:44.797Z,87.10
2022-08-08T17:34:48.505Z,87.80
2022-08-08T17:37:09.041Z,88.50
2022-08-08T17:40:04.656Z,89.60
2022-08-08T17:42:24.762Z,89.50
2022-08-08T17:44:52.820Z,89.60
2022-08-08T17:47:23.858Z,90.20
2022-08-08T17:49:52.854Z,90.80
2022-08-08T17:52:24.919Z,90.90
2022-08-08T17:54:56.347Z,91.30
2022-08-08T17:57:24.165Z,91.90
2022-08-08T17:59:58.997Z,92.20
2022-08-08T18:02:29.962Z,92.30
2022-08-08T18:05:04.441Z,92.60
2022-08-08T18:08:03.129Z,92.80
2022-08-08T18:10:31.373Z,93.00
2022-08-08T18:13:01.884Z,93.20
2022-08-08T18:15:31.416Z,93.40
2022-08-08T18:18:09.652Z,93.60
2022-08-08T18:20:54.941Z,93.70
2022-08-08T18:23:26.618Z,93.90
2022-08-08T18:25:53.688Z,94.10
2022-08-08T18:28:23.332Z,93.90
2022-08-08T18:30:52.595Z,93.90
2022-08-08T18:33:36.534Z,94.40
2022-08-08T18:36:18.603Z,94.70
2022-08-08T18:38:49.167Z,94.90
2022-08-08T18:41:17.399Z,94.90
2022-08-08T18:43:46.393Z,95.00
2022-08-08T18:46:54.719Z,95.20
2022-08-08T18:49:00.788Z,95.50
2022-08-08T18:51:52.569Z,95.90
2022-08-08T18:54:21.858Z,96.30
2022-08-08T18:56:51.201Z,96.60
2022-08-08T18:59:18.232Z,96.70
2022-08-08T19:02:28.095Z,97.20
2022-08-08T19:04:35.838Z,97.40
2022-08-08T19:07:02.994Z,97.80
2022-08-08T19:09:49.646Z,98.20
2022-08-08T19:12:19.388Z,98.60
2022-08-08T19:14:54.315Z,99.10
2022-08-08T19:17:29.382Z,99.60
2022-08-08T19:20:09.356Z,99.90
2022-08-08T19:22:39.854Z,99.90
2022-08-08T19:26:01.341Z,99.90
2022-08-08T19:28:00.032Z,99.90
2022-08-08T19:30:28.236Z,99.90
2022-08-08T19:32:58.057Z,99.90
2022-08-08T19:35:45.515Z,99.90
2022-08-08T19:38:17.242Z,99.90
2022-08-08T19:40:55.860Z,99.90
2022-08-08T19:43:28.208Z,99.90
2022-08-08T19:45:59.915Z,99.90
2022-08-08T19:48:31.275Z,99.90
2022-08-08T19:51:01.075Z,99.90
2022-08-08T19:53:50.968Z,99.90
2022-08-08T19:56:39.317Z,99.90
2022-08-08T19:59:04.452Z,99.90
2022-08-08T20:02:00.991Z,99.90
2022-08-08T20:04:22.469Z,99.90
2022-08-08T20:06:51.208Z,99.90
2022-08-08T20:09:22.844Z,99.90
2022-08-08T20:11:52.257Z,99.90
2022-08-08T20:14:34.352Z,99.90
2022-08-08T20:17:04.530Z,99.90
2022-08-08T20:19:34.441Z,99.90
2022-08-08T20:22:20.750Z,99.90
2022-08-08T20:24:53.894Z,99.90
2022-08-08T20:27:21.342Z,99.90
2022-08-08T20:30:00.353Z,99.90
2022-08-08T20:32:30.005Z,99.90
2022-08-08T20:35:02.113Z,99.90
2022-08-08T20:37:46.983Z,99.90
2022-08-08T20:40:33.655Z,99.90
2022-08-08T20:43:16.241Z,99.90
2022-08-08T20:45:54.617Z,99.90
2022-08-08T20:48:26.147Z,99.90
2022-08-08T20:50:55.725Z,99.90
2022-08-08T20:54:00.139Z,99.90
2022-08-08T20:56:09.993Z,99.90
2022-08-08T20:58:40.721Z,99.90
2022-08-08T21:01:19.931Z,99.90
2022-08-08T21:03:55.394Z,99.90
2022-08-08T21:06:23.459Z,99.90
2022-08-08T21:09:10.581Z,99.90
2022-08-08T21:11:52.208Z,99.90
2022-08-08T21:14:34.358Z,99.90
2022-08-08T21:17:06.652Z,99.90
2022-08-08T21:19:45.303Z,99.90
2022-08-08T21:22:16.112Z,99.90
2022-08-08T21:24:52.603Z,99.90
2022-08-08T21:28:05.542Z,99.90
2022-08-08T21:30:19.300Z,99.90
2022-08-08T21:32:51.561Z,99.90
2022-08-08T21:36:16.497Z,99.90
2022-08-08T21:38:14.106Z,99.90
2022-08-08T21:40:56.372Z,99.90
2022-08-08T21:43:34.056Z,99.90
2022-08-08T21:48:16.298Z,99.90
2022-08-08T21:48:58.409Z,99.90
2022-08-08T21:54:18.378Z,99.90
2022-08-08T21:54:52.010Z,99.90
2022-08-08T21:57:05.020Z,99.90
2022-08-08T22:00:01.565Z,99.90
2022-08-08T22:02:23.545Z,99.90
2022-08-08T22:04:59.016Z,99.90
2022-08-08T22:07:39.679Z,99.90
2022-08-08T22:10:18.155Z,99.90
2022-08-08T22:13:16.657Z,99.90
2022-08-08T22:15:58.741Z,99.90
2022-08-08T22:18:32.836Z,99.90
2022-08-08T22:21:13.957Z,99.90
2022-08-08T22:23:50.888Z,99.90
2022-08-08T22:26:29.990Z,99.90
2022-08-08T22:29:14.347Z,99.90
2022-08-08T22:32:01.665Z,99.90
2022-08-08T22:34:32.027Z,99.90
2022-08-08T22:36:59.538Z,99.90
2022-08-08T22:39:39.380Z,99.90
2022-08-08T22:42:14.300Z,99.90
2022-08-08T22:44:54.696Z,99.90
2022-08-08T22:47:21.625Z,99.90
2022-08-08T22:49:54.040Z,99.90
2022-08-08T22:52:33.419Z,99.90
2022-08-08T22:55:05.538Z,99.90
2022-08-08T22:57:44.250Z,99.90
2022-08-08T23:00:16.714Z,99.90
2022-08-08T23:02:44.759Z,99.90
2022-08-08T23:05:17.510Z,99.90
2022-08-08T23:07:57.762Z,99.90
2022-08-08T23:10:26.844Z,99.90
2022-08-08T23:12:56.159Z,99.90
2022-08-08T23:16:37.611Z,99.90
2022-08-08T23:18:12.377Z,99.90
2022-08-08T23:20:43.739Z,99.90
2022-08-08T23:23:12.688Z,99.90
2022-08-08T23:25:48.130Z,99.90
2022-08-08T23:28:17.861Z,99.90
2022-08-08T23:30:46.118Z,99.90
2022-08-08T23:33:19.227Z,99.90
2022-08-08T23:36:06.873Z,99.90
2022-08-08T23:38:35.470Z,99.90
2022-08-08T23:41:12.064Z,99.90
2022-08-08T23:43:45.797Z,99.90
2022-08-08T23:49:01.097Z,99.90
2022-08-08T23:49:14.566Z,99.90
2022-08-08T23:52:04.647Z,99.90
2022-08-08T23:54:41.729Z,99.90
2022-08-08T23:57:15.346Z,99.90
2022-08-08T23:59:55.634Z,99.90
